LGSO Airport Information

Runway Information
Runway 18 Length 3542 ft width 98 ft
Elevation 225 ft Threshold ft Heading 181
Runway 36 Length 3542 ft Width 98 ft
Elevation 236 ft Threshold ft Heading 1
Airport Frequencies
Type A/G Name RDO Frequency 563.7 MHZ
Type AFIS Name AFIS Frequency 118.85 MHZ
Airport Navaids
Type NDB Name Syros Frequency 417 KHZ
Airport Weather Information & NOTAM
ADDS - METARS form results

(2139 UTC 14 August 2022)
Data provider http://aviationweather.gov/metar/data/
 
METAR text: LGSO 142120Z 36008KT 9999 FEW018 24/21 Q1006
Conditions at: LGSO (SYROS , GR) observed 2120 UTC 14 August 2022
Temperature: 24.0°C (75°F)
Dewpoint: 21.0°C (70°F) [RH = 83%]
Pressure (altimeter): 29.70 inches Hg (1006.0 mb)
Winds: from the N (360 degrees) at 9 MPH (8 knots; 4.1 m/s)
Visibility: 6 or more miles (10+ km)
Ceiling: at least 12,000 feet AGL
Clouds: few clouds at 1800 feet AGL
Weather: no significant weather observed at this time

METAR text: LGSO 142050Z AUTO 01004KT //// // ////// 26/21 Q1005 RE//
Conditions at: LGSO (SYROS , GR) observed 2050 UTC 14 August 2022
Temperature: 26.0°C (79°F)
Dewpoint: 21.0°C (70°F) [RH = 74%]
Pressure (altimeter): 29.68 inches Hg (1005.0 mb)
Winds: from the N (10 degrees) at 5 MPH (4 knots; 2.1 m/s)
Visibility: missing
Ceiling: unknown
Clouds: missing
Weather: no significant weather observed at this time